ENBRLGKR

Guest
Details From ENBR - Bergen Lufthavn Flesland
To LGKR - Ioannis Kapodistrias Intl
Flight Number -
Tags Generated
Created
Modified
Stats Distance 1,360 nm / 2,518 km
Max Altitude 0 ft / 0 m
Waypoints 8
Social Downloads 0
Likes 0
Share VATSIM

Download

Looking for another format? Having issues loading an existing format? Contact us
Advertisement - Login to hide

Notes

Generated

Route

ENBR KEMEG PAH PR814 NIDLO MSR GAR02 LGKR

ID Type Via Altitude Latitude Longitude Leg Dist Tot Dist Heading (true) Name
O ENBR APT - 0 ft / 0 m 60.30662˚ 5.21370˚ - 0 nm - -
KEMEG FIX - 0 ft / 0 m 56.72083˚ 8.87250˚ 243 nm 243 nm 150° / 153° -
PAH NDB - 0 ft / 0 m 53.39422˚ 11.66589˚ 221 nm 465 nm 153° / 155° SCHWERIN-PARCHIM NDB
PR814 FIX - 0 ft / 0 m 50.12333˚ 13.97333˚ 214 nm 679 nm 155° / 157° -
NIDLO FIX - 0 ft / 0 m 46.80334˚ 15.99468˚ 215 nm 894 nm 157° / 159° -
MSR VOR - 0 ft / 0 m 43.26136˚ 17.85573˚ 226 nm 1121 nm 159° / 160° MOSTAR VOR-DME
GAR02 FIX - 0 ft / 0 m 39.63925˚ 19.90187˚ 236 nm 1358 nm 156° / 158° -
O LGKR APT - 0 ft / 0 m 39.61228˚ 19.90921˚ 1 nm 1359 nm 168° / 168° -

Altitude Profile

Advertisement - Login to hide

Weather


0- 5 10 15 20 25 30 35+ Temperature / ° C

Clouds and Precipitation
Forecast for 2017-12-17 12:00 UTC. Updated an hour ago

Ground ~20,000 ft ~40,000 ft Winds

ENBR

Details ICAO ENBR (BGO)
Name Bergen Lufthavn Flesland
Region Norway
Timezone Europe/Oslo (UTC+1.0)
Stats Elevation 165 ft / 50 m (AMSL)
Location 60.293388° 5.218140°
Runways 1
Magnetic Variation 0.842° E

METAR

ENBR 170950Z 14004KT 9999 VCSH FEW015 SCT020 BKN040 M01/M04 Q1012 TEMPO 1500 SHSN VV006 RMK WIND 1200FT 13016KT

Decode

TAF

TAF AMD ENBR 170909Z 1709/1806 14010KT 9999 SCT020 BKN040 TEMPO 1709/1711 2000 SHSN VV010 BECMG 1711/1713 16020G30KT BECMG 1714/1716 BKN012 TEMPO 1716/1724 3000 RASN BR BKN008 BECMG 1721/1723 VRB05KT BECMG 1800/1802 SCT030

Decode

Departure Runways

ID Width Length Bearing (true) Bearing (mag) Surface Threshold Offset Overrun Length
17 148 ft / 45 m 9,793 ft / 2,985 m 170.56° 169.72° Asphalt 886 ft / 270 m 0 ft / 0 m
35 148 ft / 45 m 9,793 ft / 2,985 m 350.57° 349.73° Asphalt 886 ft / 270 m 0 ft / 0 m

LGKR

Details ICAO LGKR (CFU)
Name IOANNIS KAPODISTRIAS INTL
Region Greece
Timezone Europe/Athens (UTC+2.0)
Stats Elevation 6 ft / 2 m (AMSL)
Location 39.601779° 19.911908°
Runways 1
Magnetic Variation 4.099° E

METAR

LGKR 170950Z 33012KT 9999 FEW018 SCT035 14/08 Q1010 NOSIG

Decode

TAF

TAF LGKR 170500Z 1706/1806 32010KT 9999 SCT015 BKN025 PROB30 TEMPO 1706/1800 5000 RA BKN020 BECMG 1710/1712 VRB05KT

Decode

Destination Runways

ID Width Length Bearing (true) Bearing (mag) Surface Threshold Offset Overrun Length
17 148 ft / 45 m 7,815 ft / 2,382 m 168.81° 164.71° Asphalt 1,348 ft / 411 m 0 ft / 0 m
35 148 ft / 45 m 7,815 ft / 2,382 m 348.81° 344.71° Asphalt 213 ft / 65 m 0 ft / 0 m

Popular Alternatives